sensor_id;sensor_type;location;lat;lon;timestamp;pressure;altitude;pressure_sealevel;temperature
67515;BMP280;60646;55.802;37.032;2022-09-02T00:01:52;99209.22;;;14.02
67515;BMP280;60646;55.802;37.032;2022-09-02T00:04:24;99203.56;;;14.05
67515;BMP280;60646;55.802;37.032;2022-09-02T00:06:50;99218.22;;;14.18
67515;BMP280;60646;55.802;37.032;2022-09-02T00:09:19;99207.97;;;14.03
67515;BMP280;60646;55.802;37.032;2022-09-02T00:11:47;99208.31;;;14.12
67515;BMP280;60646;55.802;37.032;2022-09-02T00:14:18;99213.69;;;14.12
67515;BMP280;60646;55.802;37.032;2022-09-02T00:16:44;99215.88;;;14.14
67515;BMP280;60646;55.802;37.032;2022-09-02T00:19:16;99223.38;;;14.15
67515;BMP280;60646;55.802;37.032;2022-09-02T00:21:44;99216.59;;;14.15
67515;BMP280;60646;55.802;37.032;2022-09-02T00:24:10;99205.00;;;14.06
67515;BMP280;60646;55.802;37.032;2022-09-02T00:26:54;99207.69;;;14.06
67515;BMP280;60646;55.802;37.032;2022-09-02T00:29:20;99219.03;;;14.12
67515;BMP280;60646;55.802;37.032;2022-09-02T00:31:46;99221.97;;;14.15
67515;BMP280;60646;55.802;37.032;2022-09-02T00:34:13;99218.00;;;14.15
67515;BMP280;60646;55.802;37.032;2022-09-02T00:36:39;99212.94;;;14.12
67515;BMP280;60646;55.802;37.032;2022-09-02T00:39:06;99207.91;;;14.08
67515;BMP280;60646;55.802;37.032;2022-09-02T00:41:33;99220.91;;;14.18
67515;BMP280;60646;55.802;37.032;2022-09-02T00:44:03;99220.91;;;14.18
67515;BMP280;60646;55.802;37.032;2022-09-02T00:46:31;99217.91;;;14.08
67515;BMP280;60646;55.802;37.032;2022-09-02T00:49:20;99208.19;;;14.05
67515;BMP280;60646;55.802;37.032;2022-09-02T00:51:56;99240.53;;;14.12
67515;BMP280;60646;55.802;37.032;2022-09-02T00:54:24;99244.84;;;14.15
67515;BMP280;60646;55.802;37.032;2022-09-02T00:56:52;99242.00;;;14.13
67515;BMP280;60646;55.802;37.032;2022-09-02T00:59:42;99226.78;;;14.03
67515;BMP280;60646;55.802;37.032;2022-09-02T01:02:11;99239.69;;;14.04
67515;BMP280;60646;55.802;37.032;2022-09-02T01:04:38;99245.81;;;14.05
67515;BMP280;60646;55.802;37.032;2022-09-02T01:07:04;99233.53;;;13.96
67515;BMP280;60646;55.802;37.032;2022-09-02T01:09:31;99230.38;;;13.92
67515;BMP280;60646;55.802;37.032;2022-09-02T01:11:58;99235.13;;;13.86
67515;BMP280;60646;55.802;37.032;2022-09-02T01:14:27;99242.66;;;13.88
67515;BMP280;60646;55.802;37.032;2022-09-02T01:16:55;99251.16;;;13.92
67515;BMP280;60646;55.802;37.032;2022-09-02T01:19:33;99242.53;;;13.80
67515;BMP280;60646;55.802;37.032;2022-09-02T01:22:00;99238.22;;;13.77
67515;BMP280;60646;55.802;37.032;2022-09-02T01:24:30;99230.25;;;13.72
67515;BMP280;60646;55.802;37.032;2022-09-02T01:26:58;99226.66;;;13.69
67515;BMP280;60646;55.802;37.032;2022-09-02T01:29:26;99223.72;;;13.67
67515;BMP280;60646;55.802;37.032;2022-09-02T01:31:53;99213.81;;;13.62
67515;BMP280;60646;55.802;37.032;2022-09-02T01:34:19;99243.16;;;13.73
67515;BMP280;60646;55.802;37.032;2022-09-02T01:37:04;99235.50;;;13.64
67515;BMP280;60646;55.802;37.032;2022-09-02T01:39:30;99227.56;;;13.59
67515;BMP280;60646;55.802;37.032;2022-09-02T01:41:55;99225.59;;;13.59
67515;BMP280;60646;55.802;37.032;2022-09-02T01:44:22;99239.84;;;13.67
67515;BMP280;60646;55.802;37.032;2022-09-02T01:46:52;99240.56;;;13.68
67515;BMP280;60646;55.802;37.032;2022-09-02T01:49:19;99231.94;;;13.56
67515;BMP280;60646;55.802;37.032;2022-09-02T01:51:46;99240.88;;;13.64
67515;BMP280;60646;55.802;37.032;2022-09-02T01:54:12;99233.66;;;13.59
67515;BMP280;60646;55.802;37.032;2022-09-02T01:56:38;99242.09;;;13.63
67515;BMP280;60646;55.802;37.032;2022-09-02T01:59:04;99229.28;;;13.56
67515;BMP280;60646;55.802;37.032;2022-09-02T02:01:33;99250.16;;;13.63
67515;BMP280;60646;55.802;37.032;2022-09-02T02:04:00;99243.34;;;13.62
67515;BMP280;60646;55.802;37.032;2022-09-02T02:06:27;99235.78;;;13.61
67515;BMP280;60646;55.802;37.032;2022-09-02T02:08:54;99238.28;;;13.59
67515;BMP280;60646;55.802;37.032;2022-09-02T02:11:23;99236.50;;;13.61
67515;BMP280;60646;55.802;37.032;2022-09-02T02:13:54;99256.16;;;13.69
67515;BMP280;60646;55.802;37.032;2022-09-02T02:16:20;99239.00;;;13.59
67515;BMP280;60646;55.802;37.032;2022-09-02T02:18:46;99245.53;;;13.64
67515;BMP280;60646;55.802;37.032;2022-09-02T02:21:12;99240.25;;;13.58
67515;BMP280;60646;55.802;37.032;2022-09-02T02:23:38;99242.19;;;13.58
67515;BMP280;60646;55.802;37.032;2022-09-02T02:26:05;99250.75;;;13.56
67515;BMP280;60646;55.802;37.032;2022-09-02T02:28:32;99252.59;;;13.61
67515;BMP280;60646;55.802;37.032;2022-09-02T02:30:58;99246.81;;;13.57
67515;BMP280;60646;55.802;37.032;2022-09-02T02:33:26;99256.75;;;13.62
67515;BMP280;60646;55.802;37.032;2022-09-02T02:35:55;99258.69;;;13.62
67515;BMP280;60646;55.802;37.032;2022-09-02T02:38:22;99246.41;;;13.53
67515;BMP280;60646;55.802;37.032;2022-09-02T02:40:54;99239.69;;;13.46
67515;BMP280;60646;55.802;37.032;2022-09-02T02:43:24;99250.03;;;13.56
67515;BMP280;60646;55.802;37.032;2022-09-02T02:45:51;99252.28;;;13.51
67515;BMP280;60646;55.802;37.032;2022-09-02T02:48:20;99258.56;;;13.54
67515;BMP280;60646;55.802;37.032;2022-09-02T02:50:46;99238.75;;;13.44
67515;BMP280;60646;55.802;37.032;2022-09-02T02:53:12;99270.50;;;13.59
67515;BMP280;60646;55.802;37.032;2022-09-02T02:55:39;99264.25;;;13.50
67515;BMP280;60646;55.802;37.032;2022-09-02T02:58:05;99250.47;;;13.41
67515;BMP280;60646;55.802;37.032;2022-09-02T03:00:32;99276.59;;;13.59
67515;BMP280;60646;55.802;37.032;2022-09-02T03:03:05;99275.34;;;13.60
67515;BMP280;60646;55.802;37.032;2022-09-02T03:05:31;99270.78;;;13.55
67515;BMP280;60646;55.802;37.032;2022-09-02T03:07:58;99282.84;;;13.62
67515;BMP280;60646;55.802;37.032;2022-09-02T03:10:25;99267.44;;;13.49
67515;BMP280;60646;55.802;37.032;2022-09-02T03:12:52;99278.00;;;13.60
67515;BMP280;60646;55.802;37.032;2022-09-02T03:15:20;99288.97;;;13.62
67515;BMP280;60646;55.802;37.032;2022-09-02T03:18:05;99273.47;;;13.55
67515;BMP280;60646;55.802;37.032;2022-09-02T03:20:31;99275.13;;;13.58
67515;BMP280;60646;55.802;37.032;2022-09-02T03:23:02;99270.34;;;13.51
67515;BMP280;60646;55.802;37.032;2022-09-02T03:25:30;99276.34;;;13.57
67515;BMP280;60646;55.802;37.032;2022-09-02T03:28:01;99293.50;;;13.67
67515;BMP280;60646;55.802;37.032;2022-09-02T03:30:29;99280.91;;;13.62
67515;BMP280;60646;55.802;37.032;2022-09-02T03:32:57;99276.28;;;13.63
67515;BMP280;60646;55.802;37.032;2022-09-02T03:35:26;99294.91;;;13.74
67515;BMP280;60646;55.802;37.032;2022-09-02T03:37:53;99292.22;;;13.74
67515;BMP280;60646;55.802;37.032;2022-09-02T03:40:25;99272.84;;;13.62
67515;BMP280;60646;55.802;37.032;2022-09-02T03:42:52;99300.16;;;13.79
67515;BMP280;60646;55.802;37.032;2022-09-02T03:45:19;99293.16;;;13.76
67515;BMP280;60646;55.802;37.032;2022-09-02T03:47:47;99289.00;;;13.75
67515;BMP280;60646;55.802;37.032;2022-09-02T03:50:25;99306.69;;;13.84
67515;BMP280;60646;55.802;37.032;2022-09-02T03:52:52;99303.56;;;13.80
67515;BMP280;60646;55.802;37.032;2022-09-02T03:55:20;99297.78;;;13.76
67515;BMP280;60646;55.802;37.032;2022-09-02T03:57:47;99309.66;;;13.80
67515;BMP280;60646;55.802;37.032;2022-09-02T04:00:15;99311.78;;;13.87
67515;BMP280;60646;55.802;37.032;2022-09-02T04:02:44;99310.63;;;13.83
67515;BMP280;60646;55.802;37.032;2022-09-02T04:05:11;99296.44;;;13.69
67515;BMP280;60646;55.802;37.032;2022-09-02T04:07:39;99319.59;;;13.85
67515;BMP280;60646;55.802;37.032;2022-09-02T04:10:06;99323.53;;;13.84
67515;BMP280;60646;55.802;37.032;2022-09-02T04:12:36;99310.47;;;13.75
67515;BMP280;60646;55.802;37.032;2022-09-02T04:16:33;99309.00;;;13.74
67515;BMP280;60646;55.802;37.032;2022-09-02T04:19:04;99337.59;;;13.90
67515;BMP280;60646;55.802;37.032;2022-09-02T04:21:32;99333.25;;;13.87
67515;BMP280;60646;55.802;37.032;2022-09-02T04:23:59;99344.13;;;13.95
67515;BMP280;60646;55.802;37.032;2022-09-02T04:26:25;99328.00;;;13.95
67515;BMP280;60646;55.802;37.032;2022-09-02T04:28:54;99343.31;;;14.00
67515;BMP280;60646;55.802;37.032;2022-09-02T04:31:23;99345.47;;;14.01
67515;BMP280;60646;55.802;37.032;2022-09-02T04:33:51;99335.97;;;14.00
67515;BMP280;60646;55.802;37.032;2022-09-02T04:36:19;99342.97;;;14.03
67515;BMP280;60646;55.802;37.032;2022-09-02T04:38:46;99338.25;;;13.96
67515;BMP280;60646;55.802;37.032;2022-09-02T04:41:22;99348.59;;;14.05
67515;BMP280;60646;55.802;37.032;2022-09-02T04:43:54;99353.97;;;14.05
67515;BMP280;60646;55.802;37.032;2022-09-02T04:46:23;99359.34;;;14.05
67515;BMP280;60646;55.802;37.032;2022-09-02T04:48:51;99349.41;;;14.00
67515;BMP280;60646;55.802;37.032;2022-09-02T04:51:18;99335.97;;;14.00
67515;BMP280;60646;55.802;37.032;2022-09-02T04:53:47;99353.44;;;14.07
67515;BMP280;60646;55.802;37.032;2022-09-02T04:56:21;99361.19;;;14.10
67515;BMP280;60646;55.802;37.032;2022-09-02T04:58:48;99357.88;;;14.04
67515;BMP280;60646;55.802;37.032;2022-09-02T05:01:22;99372.16;;;14.12
67515;BMP280;60646;55.802;37.032;2022-09-02T05:03:50;99351.78;;;14.04
67515;BMP280;60646;55.802;37.032;2022-09-02T05:06:21;99372.56;;;14.17
67515;BMP280;60646;55.802;37.032;2022-09-02T05:08:48;99370.59;;;14.17
67515;BMP280;60646;55.802;37.032;2022-09-02T05:11:21;99378.59;;;14.23
67515;BMP280;60646;55.802;37.032;2022-09-02T05:13:49;99365.97;;;14.18
67515;BMP280;60646;55.802;37.032;2022-09-02T05:16:21;99378.19;;;14.32
67515;BMP280;60646;55.802;37.032;2022-09-02T05:18:48;99377.03;;;14.27
67515;BMP280;60646;55.802;37.032;2022-09-02T05:21:15;99376.00;;;14.30
67515;BMP280;60646;55.802;37.032;2022-09-02T05:23:41;99380.16;;;14.31
67515;BMP280;60646;55.802;37.032;2022-09-02T05:26:09;99386.25;;;14.32
67515;BMP280;60646;55.802;37.032;2022-09-02T05:28:35;99392.03;;;14.36
67515;BMP280;60646;55.802;37.032;2022-09-02T05:31:10;99385.22;;;14.35
67515;BMP280;60646;55.802;37.032;2022-09-02T05:33:39;99392.38;;;14.32
67515;BMP280;60646;55.802;37.032;2022-09-02T05:36:10;99389.69;;;14.32
67515;BMP280;60646;55.802;37.032;2022-09-02T05:38:39;99379.44;;;14.31
67515;BMP280;60646;55.802;37.032;2022-09-02T05:41:08;99407.97;;;14.47
67515;BMP280;60646;55.802;37.032;2022-09-02T05:43:36;99413.78;;;14.51
67515;BMP280;60646;55.802;37.032;2022-09-02T05:46:04;99408.19;;;14.49
67515;BMP280;60646;55.802;37.032;2022-09-02T05:48:35;99413.97;;;14.53
67515;BMP280;60646;55.802;37.032;2022-09-02T05:51:20;99405.06;;;14.45
67515;BMP280;60646;55.802;37.032;2022-09-02T05:53:51;99405.91;;;14.53
67515;BMP280;60646;55.802;37.032;2022-09-02T05:56:19;99414.72;;;14.53
67515;BMP280;60646;55.802;37.032;2022-09-02T05:58:45;99400.53;;;14.53
67515;BMP280;60646;55.802;37.032;2022-09-02T06:01:13;99410.47;;;14.58
67515;BMP280;60646;55.802;37.032;2022-09-02T06:03:40;99421.22;;;14.58
67515;BMP280;60646;55.802;37.032;2022-09-02T06:06:07;99426.84;;;14.60
67515;BMP280;60646;55.802;37.032;2022-09-02T06:08:36;99420.31;;;14.55
67515;BMP280;60646;55.802;37.032;2022-09-02T06:11:07;99429.72;;;14.62
67515;BMP280;60646;55.802;37.032;2022-09-02T06:13:35;99421.97;;;14.58
67515;BMP280;60646;55.802;37.032;2022-09-02T06:16:03;99421.03;;;14.56
67515;BMP280;60646;55.802;37.032;2022-09-02T06:18:30;99426.50;;;14.63
67515;BMP280;60646;55.802;37.032;2022-09-02T06:20:57;99429.53;;;14.60
67515;BMP280;60646;55.802;37.032;2022-09-02T06:23:28;99435.91;;;14.70
67515;BMP280;60646;55.802;37.032;2022-09-02T06:25:58;99436.97;;;14.67
67515;BMP280;60646;55.802;37.032;2022-09-02T06:28:24;99440.47;;;14.75
67515;BMP280;60646;55.802;37.032;2022-09-02T06:30:51;99441.84;;;14.82
67515;BMP280;60646;55.802;37.032;2022-09-02T06:33:21;99450.41;;;14.80
67515;BMP280;60646;55.802;37.032;2022-09-02T06:35:48;99456.22;;;14.84
67515;BMP280;60646;55.802;37.032;2022-09-02T06:38:16;99452.31;;;14.85
67515;BMP280;60646;55.802;37.032;2022-09-02T06:40:54;99459.94;;;14.94
67515;BMP280;60646;55.802;37.032;2022-09-02T06:43:33;99462.88;;;14.96
67515;BMP280;60646;55.802;37.032;2022-09-02T06:46:22;99464.41;;;15.05
67515;BMP280;60646;55.802;37.032;2022-09-02T06:48:51;99459.75;;;15.05
67515;BMP280;60646;55.802;37.032;2022-09-02T06:51:31;99462.44;;;15.05
67515;BMP280;60646;55.802;37.032;2022-09-02T06:54:00;99447.63;;;14.99
67515;BMP280;60646;55.802;37.032;2022-09-02T06:56:29;99464.81;;;15.09
67515;BMP280;60646;55.802;37.032;2022-09-02T06:58:55;99470.09;;;15.14
67515;BMP280;60646;55.802;37.032;2022-09-02T07:01:33;99469.47;;;15.21
67515;BMP280;60646;55.802;37.032;2022-09-02T07:04:01;99461.41;;;15.21
67515;BMP280;60646;55.802;37.032;2022-09-02T07:06:50;99471.53;;;15.28
67515;BMP280;60646;55.802;37.032;2022-09-02T07:09:20;99462.84;;;15.35
67515;BMP280;60646;55.802;37.032;2022-09-02T07:11:48;99463.47;;;15.42
67515;BMP280;60646;55.802;37.032;2022-09-02T07:14:19;99500.59;;;15.56
67515;BMP280;60646;55.802;37.032;2022-09-02T07:16:52;99488.28;;;15.48
67515;BMP280;60646;55.802;37.032;2022-09-02T07:19:19;99503.81;;;15.55
67515;BMP280;60646;55.802;37.032;2022-09-02T07:21:46;99497.81;;;15.49
67515;BMP280;60646;55.802;37.032;2022-09-02T07:24:14;99495.31;;;15.37
67515;BMP280;60646;55.802;37.032;2022-09-02T07:26:41;99504.34;;;15.40
67515;BMP280;60646;55.802;37.032;2022-09-02T07:29:08;99508.72;;;15.30
67515;BMP280;60646;55.802;37.032;2022-09-02T07:31:40;99511.06;;;15.33
67515;BMP280;60646;55.802;37.032;2022-09-02T07:34:09;99500.19;;;15.26
67515;BMP280;60646;55.802;37.032;2022-09-02T07:36:37;99516.84;;;15.37
67515;BMP280;60646;55.802;37.032;2022-09-02T07:39:05;99507.16;;;15.34
67515;BMP280;60646;55.802;37.032;2022-09-02T07:41:32;99509.00;;;15.39
67515;BMP280;60646;55.802;37.032;2022-09-02T07:43:59;99506.75;;;15.30
67515;BMP280;60646;55.802;37.032;2022-09-02T07:46:26;99506.41;;;15.34
67515;BMP280;60646;55.802;37.032;2022-09-02T07:48:59;99521.97;;;15.41
67515;BMP280;60646;55.802;37.032;2022-09-02T07:51:26;99515.72;;;15.33
67515;BMP280;60646;55.802;37.032;2022-09-02T07:53:53;99513.38;;;15.29
67515;BMP280;60646;55.802;37.032;2022-09-02T07:56:20;99510.06;;;15.23
67515;BMP280;60646;55.802;37.032;2022-09-02T07:58:46;99521.63;;;15.31
67515;BMP280;60646;55.802;37.032;2022-09-02T08:01:12;99526.00;;;15.34
67515;BMP280;60646;55.802;37.032;2022-09-02T08:03:41;99534.13;;;15.42
67515;BMP280;60646;55.802;37.032;2022-09-02T08:06:10;99537.16;;;15.52
67515;BMP280;60646;55.802;37.032;2022-09-02T08:08:36;99533.44;;;15.55
67515;BMP280;60646;55.802;37.032;2022-09-02T08:11:03;99543.06;;;15.63
67515;BMP280;60646;55.802;37.032;2022-09-02T08:13:29;99530.50;;;15.66
67515;BMP280;60646;55.802;37.032;2022-09-02T08:15:55;99540.69;;;15.73
67515;BMP280;60646;55.802;37.032;2022-09-02T08:18:21;99539.41;;;15.74
67515;BMP280;60646;55.802;37.032;2022-09-02T08:20:47;99534.22;;;15.76
67515;BMP280;60646;55.802;37.032;2022-09-02T08:23:13;99513.31;;;15.69
67515;BMP280;60646;55.802;37.032;2022-09-02T08:25:39;99546.56;;;15.84
67515;BMP280;60646;55.802;37.032;2022-09-02T08:28:05;99553.06;;;15.89
67515;BMP280;60646;55.802;37.032;2022-09-02T08:30:32;99545.19;;;15.91
67515;BMP280;60646;55.802;37.032;2022-09-02T08:32:58;99545.38;;;15.93
67515;BMP280;60646;55.802;37.032;2022-09-02T08:35:27;99559.66;;;16.01
67515;BMP280;60646;55.802;37.032;2022-09-02T08:37:53;99533.44;;;16.01
67515;BMP280;60646;55.802;37.032;2022-09-02T08:40:21;99558.78;;;16.19
67515;BMP280;60646;55.802;37.032;2022-09-02T08:42:54;99550.66;;;16.32
67515;BMP280;60646;55.802;37.032;2022-09-02T08:45:35;99546.38;;;16.37
67515;BMP280;60646;55.802;37.032;2022-09-02T08:48:21;99559.06;;;16.49
67515;BMP280;60646;55.802;37.032;2022-09-02T08:50:49;99561.47;;;16.53
67515;BMP280;60646;55.802;37.032;2022-09-02T08:53:18;99564.19;;;16.60
67515;BMP280;60646;55.802;37.032;2022-09-02T08:55:51;99562.97;;;16.61
67515;BMP280;60646;55.802;37.032;2022-09-02T08:58:26;99561.88;;;16.64
67515;BMP280;60646;55.802;37.032;2022-09-02T09:01:19;99569.72;;;16.75
67515;BMP280;60646;55.802;37.032;2022-09-02T09:07:26;99573.25;;;16.63
67515;BMP280;60646;55.802;37.032;2022-09-02T09:12:07;99577.53;;;16.58
67515;BMP280;60646;55.802;37.032;2022-09-02T09:17:17;99581.06;;;16.53
67515;BMP280;60646;55.802;37.032;2022-09-02T09:19:50;99581.06;;;16.53
67515;BMP280;60646;55.802;37.032;2022-09-02T09:22:23;99582.50;;;16.54
67515;BMP280;60646;55.802;37.032;2022-09-02T09:24:51;99578.53;;;16.55
67515;BMP280;60646;55.802;37.032;2022-09-02T09:27:21;99580.94;;;16.59
67515;BMP280;60646;55.802;37.032;2022-09-02T09:29:49;99585.78;;;16.60
67515;BMP280;60646;55.802;37.032;2022-09-02T09:32:30;99609.03;;;16.84
67515;BMP280;60646;55.802;37.032;2022-09-02T09:35:08;99602.09;;;16.75
67515;BMP280;60646;55.802;37.032;2022-09-02T09:51:11;99641.72;;;16.81
67515;BMP280;60646;55.802;37.032;2022-09-02T09:53:37;99651.28;;;16.82
67515;BMP280;60646;55.802;37.032;2022-09-02T09:56:05;99652.84;;;16.77
67515;BMP280;60646;55.802;37.032;2022-09-02T10:01:18;99654.16;;;16.63
67515;BMP280;60646;55.802;37.032;2022-09-02T10:11:55;99681.47;;;16.46
67515;BMP280;60646;55.802;37.032;2022-09-02T10:14:22;99684.06;;;16.39
67515;BMP280;60646;55.802;37.032;2022-09-02T10:17:05;99699.94;;;16.42
67515;BMP280;60646;55.802;37.032;2022-09-02T10:22:21;99692.38;;;16.41
67515;BMP280;60646;55.802;37.032;2022-09-02T10:30:22;99703.06;;;16.33
67515;BMP280;60646;55.802;37.032;2022-09-02T10:33:07;99695.53;;;16.32
67515;BMP280;60646;55.802;37.032;2022-09-02T10:38:43;99709.50;;;16.30
67515;BMP280;60646;55.802;37.032;2022-09-02T10:58:00;99698.38;;;16.47
67515;BMP280;60646;55.802;37.032;2022-09-02T11:00:30;99696.00;;;16.43
67515;BMP280;60646;55.802;37.032;2022-09-02T11:03:24;99709.84;;;16.60
67515;BMP280;60646;55.802;37.032;2022-09-02T11:05:53;99693.88;;;16.62
67515;BMP280;60646;55.802;37.032;2022-09-02T11:24:59;99707.22;;;17.02
67515;BMP280;60646;55.802;37.032;2022-09-02T11:27:49;99717.78;;;17.13
67515;BMP280;60646;55.802;37.032;2022-09-02T11:36:28;99695.31;;;17.18
67515;BMP280;60646;55.802;37.032;2022-09-02T11:39:00;99727.16;;;17.40
67515;BMP280;60646;55.802;37.032;2022-09-02T11:55:34;99721.72;;;17.89
67515;BMP280;60646;55.802;37.032;2022-09-02T11:58:01;99720.13;;;17.93
67515;BMP280;60646;55.802;37.032;2022-09-02T12:00:35;99707.34;;;17.94
67515;BMP280;60646;55.802;37.032;2022-09-02T12:03:24;99729.75;;;18.09
67515;BMP280;60646;55.802;37.032;2022-09-02T12:06:07;99716.06;;;18.07
67515;BMP280;60646;55.802;37.032;2022-09-02T12:11:05;99744.63;;;18.24
67515;BMP280;60646;55.802;37.032;2022-09-02T12:13:39;99736.69;;;18.26
67515;BMP280;60646;55.802;37.032;2022-09-02T12:21:34;99734.59;;;18.39
67515;BMP280;60646;55.802;37.032;2022-09-02T12:24:18;99745.44;;;18.47
67515;BMP280;60646;55.802;37.032;2022-09-02T12:31:40;99746.53;;;18.59
67515;BMP280;60646;55.802;37.032;2022-09-02T12:37:01;99751.63;;;18.77
67515;BMP280;60646;55.802;37.032;2022-09-02T12:57:41;99781.59;;;18.29
67515;BMP280;60646;55.802;37.032;2022-09-02T13:00:13;99790.22;;;18.20
67515;BMP280;60646;55.802;37.032;2022-09-02T13:05:30;99782.00;;;18.04
67515;BMP280;60646;55.802;37.032;2022-09-02T13:10:55;99794.94;;;17.98
67515;BMP280;60646;55.802;37.032;2022-09-02T13:27:08;99803.84;;;18.06
67515;BMP280;60646;55.802;37.032;2022-09-02T13:29:56;99803.88;;;18.14
67515;BMP280;60646;55.802;37.032;2022-09-02T13:32:29;99788.19;;;18.12
67515;BMP280;60646;55.802;37.032;2022-09-02T13:34:58;99808.84;;;18.31
67515;BMP280;60646;55.802;37.032;2022-09-02T13:37:29;99810.34;;;18.39
67515;BMP280;60646;55.802;37.032;2022-09-02T13:39:57;99809.97;;;18.43
67515;BMP280;60646;55.802;37.032;2022-09-02T13:42:25;99822.28;;;18.51
67515;BMP280;60646;55.802;37.032;2022-09-02T13:45:13;99816.50;;;18.55
67515;BMP280;60646;55.802;37.032;2022-09-02T13:47:44;99829.47;;;18.49
67515;BMP280;60646;55.802;37.032;2022-09-02T13:50:16;99830.91;;;18.50
67515;BMP280;60646;55.802;37.032;2022-09-02T13:52:45;99839.25;;;18.52
67515;BMP280;60646;55.802;37.032;2022-09-02T13:55:14;99834.50;;;18.45
67515;BMP280;60646;55.802;37.032;2022-09-02T13:57:51;99874.91;;;18.43
67515;BMP280;60646;55.802;37.032;2022-09-02T14:03:17;99864.44;;;18.11
67515;BMP280;60646;55.802;37.032;2022-09-02T14:05:45;99853.31;;;17.94
67515;BMP280;60646;55.802;37.032;2022-09-02T14:08:15;99859.00;;;17.83
67515;BMP280;60646;55.802;37.032;2022-09-02T14:10:43;99848.06;;;17.68
67515;BMP280;60646;55.802;37.032;2022-09-02T14:13:11;99838.88;;;17.50
67515;BMP280;60646;55.802;37.032;2022-09-02T14:15:38;99853.50;;;17.55
67515;BMP280;60646;55.802;37.032;2022-09-02T14:20:38;99859.34;;;17.45
67515;BMP280;60646;55.802;37.032;2022-09-02T14:23:04;99844.88;;;17.35
67515;BMP280;60646;55.802;37.032;2022-09-02T14:25:57;99834.72;;;17.28
67515;BMP280;60646;55.802;37.032;2022-09-02T14:28:24;99861.91;;;17.43
67515;BMP280;60646;55.802;37.032;2022-09-02T14:31:05;99861.81;;;17.36
67515;BMP280;60646;55.802;37.032;2022-09-02T14:43:46;99843.97;;;17.20
67515;BMP280;60646;55.802;37.032;2022-09-02T14:49:36;99866.59;;;17.30
67515;BMP280;60646;55.802;37.032;2022-09-02T14:51:57;99859.22;;;17.30
67515;BMP280;60646;55.802;37.032;2022-09-02T14:54:43;99867.00;;;17.34
67515;BMP280;60646;55.802;37.032;2022-09-02T14:57:35;99855.75;;;17.22
67515;BMP280;60646;55.802;37.032;2022-09-02T15:00:09;99866.78;;;17.32
67515;BMP280;60646;55.802;37.032;2022-09-02T15:02:36;99855.59;;;17.28
67515;BMP280;60646;55.802;37.032;2022-09-02T15:05:09;99873.66;;;17.33
67515;BMP280;60646;55.802;37.032;2022-09-02T15:07:38;99869.72;;;17.34
67515;BMP280;60646;55.802;37.032;2022-09-02T15:10:04;99876.75;;;17.37
67515;BMP280;60646;55.802;37.032;2022-09-02T15:13:00;99872.19;;;17.32
67515;BMP280;60646;55.802;37.032;2022-09-02T15:15:26;99857.91;;;17.24
67515;BMP280;60646;55.802;37.032;2022-09-02T15:17:53;99879.44;;;17.37
67515;BMP280;60646;55.802;37.032;2022-09-02T15:20:19;99863.50;;;17.26
67515;BMP280;60646;55.802;37.032;2022-09-02T15:22:46;99864.75;;;17.25
67515;BMP280;60646;55.802;37.032;2022-09-02T15:25:12;99873.25;;;17.29
67515;BMP280;60646;55.802;37.032;2022-09-02T15:27:39;99871.28;;;17.29
67515;BMP280;60646;55.802;37.032;2022-09-02T15:30:06;99886.81;;;17.36
67515;BMP280;60646;55.802;37.032;2022-09-02T15:32:34;99884.84;;;17.37
67515;BMP280;60646;55.802;37.032;2022-09-02T15:35:00;99888.81;;;17.36
67515;BMP280;60646;55.802;37.032;2022-09-02T15:37:28;99875.63;;;17.32
67515;BMP280;60646;55.802;37.032;2022-09-02T15:39:54;99888.81;;;17.36
67515;BMP280;60646;55.802;37.032;2022-09-02T15:42:20;99892.38;;;17.31
67515;BMP280;60646;55.802;37.032;2022-09-02T15:44:46;99892.38;;;17.31
67515;BMP280;60646;55.802;37.032;2022-09-02T15:47:19;99893.78;;;17.32
67515;BMP280;60646;55.802;37.032;2022-09-02T15:49:51;99888.25;;;17.17
67515;BMP280;60646;55.802;37.032;2022-09-02T15:52:17;99896.34;;;17.17
67515;BMP280;60646;55.802;37.032;2022-09-02T15:54:43;99895.72;;;17.11
67515;BMP280;60646;55.802;37.032;2022-09-02T15:57:09;99889.91;;;17.07
67515;BMP280;60646;55.802;37.032;2022-09-02T15:59:36;99917.53;;;17.13
67515;BMP280;60646;55.802;37.032;2022-09-02T16:02:02;99918.16;;;17.06
67515;BMP280;60646;55.802;37.032;2022-09-02T16:04:28;99906.31;;;16.96
67515;BMP280;60646;55.802;37.032;2022-09-02T16:06:54;99903.22;;;16.92
67515;BMP280;60646;55.802;37.032;2022-09-02T16:09:20;99915.28;;;16.91
67515;BMP280;60646;55.802;37.032;2022-09-02T16:11:48;99927.22;;;16.95
67515;BMP280;60646;55.802;37.032;2022-09-02T16:14:15;99928.25;;;16.92
67515;BMP280;60646;55.802;37.032;2022-09-02T16:16:41;99911.53;;;16.81
67515;BMP280;60646;55.802;37.032;2022-09-02T16:19:07;99921.72;;;16.88
67515;BMP280;60646;55.802;37.032;2022-09-02T16:21:34;99908.09;;;16.80
67515;BMP280;60646;55.802;37.032;2022-09-02T16:24:00;99905.94;;;16.65
67515;BMP280;60646;55.802;37.032;2022-09-02T16:28:57;99902.50;;;16.65
67515;BMP280;60646;55.802;37.032;2022-09-02T16:31:24;99925.63;;;16.87
67515;BMP280;60646;55.802;37.032;2022-09-02T16:36:25;99921.72;;;16.61
67515;BMP280;60646;55.802;37.032;2022-09-02T16:38:52;99945.91;;;16.67
67515;BMP280;60646;55.802;37.032;2022-09-02T16:43:48;99935.59;;;16.52
67515;BMP280;60646;55.802;37.032;2022-09-02T16:46:17;99942.88;;;16.57
67515;BMP280;60646;55.802;37.032;2022-09-02T16:48:48;99952.00;;;16.54
67515;BMP280;60646;55.802;37.032;2022-09-02T16:51:18;99938.19;;;16.45
67515;BMP280;60646;55.802;37.032;2022-09-02T16:53:58;99954.97;;;16.51
67515;BMP280;60646;55.802;37.032;2022-09-02T16:56:24;99960.69;;;16.47
67515;BMP280;60646;55.802;37.032;2022-09-02T16:59:02;99958.00;;;16.47
67515;BMP280;60646;55.802;37.032;2022-09-02T17:01:51;99964.84;;;16.48
67515;BMP280;60646;55.802;37.032;2022-09-02T17:04:24;99968.56;;;16.45
67515;BMP280;60646;55.802;37.032;2022-09-02T17:06:53;99964.09;;;16.35
67515;BMP280;60646;55.802;37.032;2022-09-02T17:09:32;99974.59;;;16.38
67515;BMP280;60646;55.802;37.032;2022-09-02T17:11:58;99962.19;;;16.30